createdAt,value
2018-08-09T00:01:58.152Z,582.93
2018-08-09T00:04:25.334Z,520.07
2018-08-09T00:06:52.503Z,569.73
2018-08-09T00:09:19.684Z,517.43
2018-08-09T00:11:46.872Z,586.40
2018-08-09T00:14:14.056Z,520.17
2018-08-09T00:16:41.518Z,525.07
2018-08-09T00:19:08.700Z,584.50
2018-08-09T00:21:35.868Z,529.50
2018-08-09T00:24:03.219Z,599.93
2018-08-09T00:26:30.388Z,483.33
2018-08-09T00:28:58.052Z,598.17
2018-08-09T00:31:25.216Z,598.47
2018-08-09T00:33:52.894Z,593.50
2018-08-09T00:36:20.043Z,597.93
2018-08-09T00:38:47.232Z,446.07
2018-08-09T00:41:14.398Z,532.97
2018-08-09T00:43:41.579Z,601.73
2018-08-09T00:46:08.937Z,577.40
2018-08-09T00:48:36.120Z,575.83
2018-08-09T00:51:03.298Z,571.13
2018-08-09T00:53:30.472Z,585.23
2018-08-09T00:55:57.626Z,569.47
2018-08-09T00:58:24.800Z,575.77
2018-08-09T01:00:51.981Z,513.17
2018-08-09T01:03:19.142Z,571.97
2018-08-09T01:05:46.303Z,572.00
2018-08-09T01:08:13.473Z,587.70
2018-08-09T01:10:40.642Z,566.00
2018-08-09T01:13:07.812Z,563.10
2018-08-09T01:15:34.980Z,563.17
2018-08-09T01:18:02.179Z,509.57
2018-08-09T01:20:29.395Z,569.60
2018-08-09T01:22:56.589Z,558.37
2018-08-09T01:25:23.829Z,566.70
2018-08-09T01:27:51.010Z,564.87
2018-08-09T01:30:18.211Z,559.87
2018-08-09T01:32:45.431Z,566.50
2018-08-09T01:35:12.770Z,574.93
2018-08-09T01:37:39.944Z,575.03
2018-08-09T01:40:07.155Z,576.87
2018-08-09T01:42:45.783Z,563.03
2018-08-09T01:45:12.964Z,506.57
2018-08-09T01:47:40.120Z,553.63
2018-08-09T01:50:07.336Z,564.80
2018-08-09T01:52:34.513Z,552.93
2018-08-09T01:55:01.720Z,561.60
2018-08-09T01:57:28.936Z,553.03
2018-08-09T01:59:56.119Z,555.83
2018-08-09T02:02:23.337Z,500.00
2018-08-09T02:04:50.620Z,563.07
2018-08-09T02:07:17.755Z,556.90
2018-08-09T02:09:44.946Z,555.03
2018-08-09T02:12:12.155Z,552.10
2018-08-09T02:14:39.348Z,557.50
2018-08-09T02:17:06.539Z,555.80
2018-08-09T02:19:33.898Z,550.17
2018-08-09T02:22:01.088Z,551.33
2018-08-09T02:24:28.316Z,548.23
2018-08-09T02:26:55.539Z,555.97
2018-08-09T02:29:22.906Z,549.80
2018-08-09T02:31:50.101Z,553.20
2018-08-09T02:34:17.314Z,553.63
2018-08-09T02:36:44.503Z,552.33
2018-08-09T02:39:11.752Z,557.03
2018-08-09T02:41:38.926Z,550.77
2018-08-09T02:44:06.309Z,546.20
2018-08-09T02:46:33.564Z,552.77
2018-08-09T02:49:00.755Z,553.60
2018-08-09T02:51:28.244Z,550.47
2018-08-09T02:53:55.421Z,550.00
2018-08-09T02:56:22.611Z,551.30
2018-08-09T02:58:49.812Z,555.17
2018-08-09T03:01:17.032Z,558.37
2018-08-09T03:03:44.227Z,557.47
2018-08-09T03:06:11.429Z,550.37
2018-08-09T03:08:38.847Z,549.47
2018-08-09T03:11:06.293Z,561.13
2018-08-09T03:13:33.491Z,551.30
2018-08-09T03:16:00.681Z,550.93
2018-08-09T03:18:27.880Z,550.90
2018-08-09T03:20:55.083Z,545.43
2018-08-09T03:23:22.351Z,556.00
2018-08-09T03:25:49.584Z,550.67
2018-08-09T03:28:16.768Z,548.37
2018-08-09T03:30:43.986Z,558.80
2018-08-09T03:33:11.175Z,554.03
2018-08-09T03:35:38.359Z,564.43
2018-08-09T03:38:05.590Z,555.43
2018-08-09T03:40:32.779Z,551.17
2018-08-09T03:42:59.979Z,549.07
2018-08-09T03:45:27.163Z,557.10
2018-08-09T03:47:54.379Z,548.17
2018-08-09T03:50:21.571Z,549.67
2018-08-09T03:52:48.759Z,556.70
2018-08-09T03:55:15.969Z,557.67
2018-08-09T03:57:43.161Z,561.10
2018-08-09T04:00:10.484Z,564.87
2018-08-09T04:02:37.967Z,559.43
2018-08-09T04:05:05.414Z,566.23
2018-08-09T04:07:32.596Z,550.80
2018-08-09T04:09:59.787Z,555.43
2018-08-09T04:12:26.990Z,551.13
2018-08-09T04:14:54.187Z,547.53
2018-08-09T04:17:21.851Z,548.33
2018-08-09T04:19:50.342Z,542.23
2018-08-09T04:22:18.040Z,551.17
2018-08-09T04:24:45.699Z,554.37
2018-08-09T04:27:12.895Z,547.53
2018-08-09T04:29:40.315Z,554.57
2018-08-09T04:32:07.542Z,561.80
2018-08-09T04:34:34.860Z,555.03
2018-08-09T04:37:02.036Z,557.40
2018-08-09T04:39:29.224Z,553.37
2018-08-09T04:41:56.411Z,551.03
2018-08-09T04:44:23.567Z,550.27
2018-08-09T04:46:50.760Z,554.47
2018-08-09T04:49:17.948Z,562.03
2018-08-09T04:51:45.099Z,552.73
2018-08-09T04:54:12.251Z,557.77
2018-08-09T04:56:39.431Z,549.40
2018-08-09T04:59:06.628Z,553.37
2018-08-09T05:01:33.801Z,555.10
2018-08-09T05:04:00.968Z,551.93
2018-08-09T05:06:28.119Z,554.67
2018-08-09T05:08:55.291Z,555.67
2018-08-09T05:11:22.444Z,566.10
2018-08-09T05:13:49.602Z,556.33
2018-08-09T05:16:16.760Z,556.57
2018-08-09T05:18:43.928Z,565.27
2018-08-09T05:21:11.099Z,566.13
2018-08-09T05:23:38.269Z,556.37
2018-08-09T05:26:05.635Z,551.97
2018-08-09T05:28:32.954Z,568.27
2018-08-09T05:31:00.133Z,558.93
2018-08-09T05:33:27.304Z,560.13
2018-08-09T05:35:54.464Z,552.00
2018-08-09T05:38:21.627Z,557.60
2018-08-09T05:40:48.795Z,563.20
2018-08-09T05:43:16.027Z,563.33
2018-08-09T05:45:43.519Z,568.63
2018-08-09T05:48:10.671Z,572.50
2018-08-09T05:50:37.856Z,555.63
2018-08-09T05:53:05.209Z,552.73
2018-08-09T05:55:32.372Z,560.57
2018-08-09T05:57:59.584Z,559.20
2018-08-09T06:00:26.751Z,564.67
2018-08-09T06:02:53.903Z,555.17
2018-08-09T06:05:21.083Z,561.03
2018-08-09T06:07:48.251Z,574.57
2018-08-09T06:10:15.428Z,568.03
2018-08-09T06:12:42.603Z,562.83
2018-08-09T06:15:09.766Z,567.63
2018-08-09T06:17:36.927Z,562.67
2018-08-09T06:20:04.626Z,551.40
2018-08-09T06:22:31.800Z,566.83
2018-08-09T06:24:58.963Z,558.20
2018-08-09T06:27:26.128Z,563.60
2018-08-09T06:29:53.380Z,562.03
2018-08-09T06:32:20.584Z,569.83
2018-08-09T06:34:47.769Z,557.77
2018-08-09T06:37:14.954Z,557.63
2018-08-09T06:39:42.172Z,567.70
2018-08-09T06:42:09.392Z,559.40
2018-08-09T06:44:36.571Z,559.37
2018-08-09T06:47:03.732Z,571.57
2018-08-09T06:49:31.090Z,554.17
2018-08-09T06:51:58.279Z,560.40
2018-08-09T06:54:25.448Z,558.90
2018-08-09T06:56:52.606Z,559.27
2018-08-09T06:59:19.764Z,562.27
2018-08-09T07:01:46.943Z,572.73
2018-08-09T07:04:14.112Z,572.57
2018-08-09T07:06:41.289Z,590.90
2018-08-09T07:09:09.181Z,651.50
2018-08-09T07:11:36.388Z,687.93
2018-08-09T07:14:03.620Z,667.00
2018-08-09T07:16:30.816Z,663.37
2018-08-09T07:18:57.956Z,694.93
2018-08-09T07:21:25.124Z,738.43
2018-08-09T07:23:52.304Z,823.70
2018-08-09T07:26:19.509Z,788.30
2018-08-09T07:28:46.640Z,778.23
2018-08-09T07:31:13.800Z,812.77
2018-08-09T07:33:40.984Z,783.43
2018-08-09T07:36:08.151Z,776.93
2018-08-09T07:38:35.292Z,809.20
2018-08-09T07:41:02.479Z,805.33
2018-08-09T07:43:29.660Z,812.57
2018-08-09T07:45:56.824Z,876.37
2018-08-09T07:48:24.023Z,894.80
2018-08-09T07:50:51.211Z,894.37
2018-08-09T07:53:18.373Z,922.80
2018-08-09T07:55:45.545Z,871.67
2018-08-09T07:58:12.705Z,845.20
2018-08-09T08:00:39.873Z,827.67
2018-08-09T08:03:07.068Z,846.87
2018-08-09T08:05:34.299Z,884.27
2018-08-09T08:08:01.485Z,851.47
2018-08-09T08:10:28.776Z,909.00
2018-08-09T08:12:55.962Z,930.67
2018-08-09T08:15:23.120Z,903.90
2018-08-09T08:17:50.303Z,843.73
2018-08-09T08:20:17.460Z,848.50
2018-08-09T08:22:44.659Z,902.33
2018-08-09T08:25:11.883Z,937.00
2018-08-09T08:27:39.043Z,943.07
2018-08-09T08:30:08.628Z,935.30
2018-08-09T08:32:35.924Z,899.17
2018-08-09T08:35:03.315Z,864.20
2018-08-09T08:37:30.475Z,915.63
2018-08-09T08:39:57.646Z,850.10
2018-08-09T08:42:24.876Z,871.30
2018-08-09T08:44:52.031Z,876.30
2018-08-09T08:47:19.244Z,900.97
2018-08-09T08:49:46.376Z,908.43
2018-08-09T08:52:13.558Z,874.70
2018-08-09T08:54:40.728Z,927.30
2018-08-09T08:57:07.902Z,910.33
2018-08-09T08:59:35.076Z,913.00
2018-08-09T09:02:02.268Z,879.83
2018-08-09T09:04:29.503Z,874.57
2018-08-09T09:06:56.638Z,867.60
2018-08-09T09:09:23.814Z,884.83
2018-08-09T09:11:51.003Z,875.83
2018-08-09T09:14:18.167Z,865.83
2018-08-09T09:16:45.327Z,934.97
2018-08-09T09:19:12.530Z,887.30
2018-08-09T09:21:39.648Z,948.53
2018-08-09T09:24:06.849Z,935.07
2018-08-09T09:26:34.036Z,920.50
2018-08-09T09:29:01.217Z,885.80
2018-08-09T09:31:28.379Z,947.80
2018-08-09T09:33:55.564Z,942.63
2018-08-09T09:36:22.728Z,930.87
2018-08-09T09:38:49.875Z,920.10
2018-08-09T09:41:17.048Z,925.53
2018-08-09T09:43:44.226Z,961.77
2018-08-09T09:46:11.411Z,914.23
2018-08-09T09:48:38.651Z,903.57
2018-08-09T09:51:06.003Z,917.50
2018-08-09T09:53:33.162Z,931.17
2018-08-09T09:56:00.358Z,916.40
2018-08-09T09:58:27.496Z,937.00
2018-08-09T10:01:00.332Z,946.37
2018-08-09T10:03:27.492Z,929.73
2018-08-09T10:05:54.647Z,920.93
2018-08-09T10:08:21.828Z,945.57
2018-08-09T10:10:49.005Z,918.07
2018-08-09T10:13:16.168Z,949.37
2018-08-09T10:15:43.352Z,872.73
2018-08-09T10:18:10.511Z,921.23
2018-08-09T10:20:37.688Z,966.83
2018-08-09T10:23:04.925Z,947.43
2018-08-09T10:25:32.392Z,876.17
2018-08-09T10:27:59.553Z,877.87
2018-08-09T10:30:26.990Z,941.03
2018-08-09T10:32:54.160Z,910.97
2018-08-09T10:35:21.368Z,878.67
2018-08-09T10:37:48.539Z,891.27
2018-08-09T10:40:15.705Z,948.67
2018-08-09T10:42:42.895Z,937.50
2018-08-09T10:45:10.096Z,942.60
2018-08-09T10:47:37.445Z,949.77
2018-08-09T10:50:04.637Z,916.03
2018-08-09T10:52:31.841Z,954.33
2018-08-09T10:54:59.022Z,970.03
2018-08-09T10:57:26.232Z,950.23
2018-08-09T10:59:53.423Z,983.00
2018-08-09T11:02:20.580Z,894.40
2018-08-09T11:04:48.716Z,943.13
2018-08-09T11:07:15.883Z,926.03
2018-08-09T11:09:43.064Z,897.57
2018-08-09T11:12:10.244Z,934.90
2018-08-09T11:14:37.415Z,929.33
2018-08-09T11:17:04.699Z,960.93
2018-08-09T11:19:31.867Z,923.93
2018-08-09T11:21:59.031Z,904.23
2018-08-09T11:24:26.197Z,920.87
2018-08-09T11:26:53.355Z,982.23
2018-08-09T11:29:20.548Z,934.60
2018-08-09T11:31:47.768Z,941.73
2018-08-09T11:34:14.971Z,934.77
2018-08-09T11:36:42.167Z,926.47
2018-08-09T11:39:11.015Z,942.13
2018-08-09T11:41:38.417Z,977.07
2018-08-09T11:44:05.659Z,964.40
2018-08-09T11:46:32.852Z,918.13
2018-08-09T11:49:00.071Z,933.83
2018-08-09T11:51:27.427Z,946.90
2018-08-09T11:53:54.614Z,936.87
2018-08-09T11:56:21.855Z,966.63
2018-08-09T11:58:49.007Z,889.00
2018-08-09T12:01:16.215Z,919.07
2018-08-09T12:03:43.409Z,966.83
2018-08-09T12:06:10.600Z,898.83
2018-08-09T12:08:37.787Z,946.87
2018-08-09T12:11:05.127Z,954.93
2018-08-09T12:13:32.391Z,973.37
2018-08-09T12:15:59.593Z,901.20
2018-08-09T12:18:26.859Z,922.83
2018-08-09T12:20:54.118Z,904.93
2018-08-09T12:23:21.288Z,893.80
2018-08-09T12:25:48.516Z,878.97
2018-08-09T12:28:15.756Z,905.83
2018-08-09T12:30:43.029Z,890.80
2018-08-09T12:33:10.311Z,902.70
2018-08-09T12:35:37.527Z,904.47
2018-08-09T12:38:04.735Z,912.50
2018-08-09T12:40:31.936Z,896.80
2018-08-09T12:42:59.193Z,880.73
2018-08-09T12:45:26.409Z,951.47
2018-08-09T12:47:53.634Z,979.67
2018-08-09T12:50:21.045Z,914.40
2018-08-09T12:52:48.276Z,897.13
2018-08-09T12:55:15.514Z,968.10
2018-08-09T12:57:43.320Z,917.77
2018-08-09T13:00:12.315Z,965.37
2018-08-09T13:02:40.926Z,953.70
2018-08-09T13:05:10.716Z,945.77
2018-08-09T13:07:42.860Z,910.27
2018-08-09T13:10:13.277Z,905.97
2018-08-09T13:12:41.701Z,939.83
2018-08-09T13:15:11.633Z,913.13
2018-08-09T13:17:43.889Z,935.37
2018-08-09T13:20:18.082Z,897.30
2018-08-09T13:22:49.060Z,862.57
2018-08-09T13:25:21.538Z,927.00
2018-08-09T13:27:48.911Z,893.57
2018-08-09T13:30:16.262Z,861.47
2018-08-09T13:32:44.273Z,909.17
2018-08-09T13:35:11.662Z,879.07
2018-08-09T13:37:39.698Z,902.73
2018-08-09T13:40:08.087Z,930.23
2018-08-09T13:42:35.476Z,829.47
2018-08-09T13:45:02.971Z,793.77
2018-08-09T13:47:30.316Z,742.03
2018-08-09T13:49:57.627Z,675.87
2018-08-09T13:52:25.264Z,648.50
2018-08-09T13:54:52.563Z,660.53
2018-08-09T13:57:20.063Z,594.60
2018-08-09T13:59:47.423Z,602.23
2018-08-09T14:02:14.675Z,594.03
2018-08-09T14:04:42.013Z,597.03
2018-08-09T14:07:09.385Z,593.50
2018-08-09T14:09:37.515Z,605.37
2018-08-09T14:12:04.835Z,583.63
2018-08-09T14:14:32.077Z,577.70
2018-08-09T14:16:59.285Z,578.43
2018-08-09T14:19:26.483Z,568.50
2018-08-09T14:21:53.821Z,565.47
2018-08-09T14:24:21.037Z,559.40
2018-08-09T14:26:48.221Z,560.77
2018-08-09T14:29:15.458Z,560.20
2018-08-09T14:31:42.631Z,557.53
2018-08-09T14:34:09.828Z,557.33
2018-08-09T14:36:37.083Z,556.17
2018-08-09T14:39:07.482Z,570.10
2018-08-09T14:41:34.665Z,553.37
2018-08-09T14:44:01.872Z,557.67
2018-08-09T14:46:29.072Z,560.47
2018-08-09T14:48:56.284Z,560.83
2018-08-09T14:51:23.591Z,568.37
2018-08-09T14:53:50.791Z,562.47
2018-08-09T14:56:18.012Z,560.40
2018-08-09T14:58:45.227Z,559.17
2018-08-09T15:01:12.443Z,563.10
2018-08-09T15:03:40.008Z,561.47
2018-08-09T15:06:07.228Z,560.33
2018-08-09T15:08:34.426Z,567.10
2018-08-09T15:11:01.649Z,567.63
2018-08-09T15:13:28.885Z,576.13
2018-08-09T15:15:56.060Z,582.73
2018-08-09T15:18:23.277Z,577.30
2018-08-09T15:20:50.467Z,579.47
2018-08-09T15:23:17.671Z,596.97
2018-08-09T15:25:44.860Z,590.30
2018-08-09T15:28:12.072Z,578.47
2018-08-09T15:30:39.333Z,583.37
2018-08-09T15:33:06.578Z,577.40
2018-08-09T15:35:33.804Z,578.80
2018-08-09T15:38:01.142Z,575.37
2018-08-09T15:40:28.243Z,570.50
2018-08-09T15:42:55.472Z,588.10
2018-08-09T15:45:22.680Z,581.17
2018-08-09T15:47:49.980Z,582.37
2018-08-09T15:50:18.439Z,569.13
2018-08-09T15:52:45.712Z,572.60
2018-08-09T15:55:13.988Z,570.97
2018-08-09T15:57:41.224Z,574.30
2018-08-09T16:00:11.875Z,586.60
2018-08-09T16:02:39.172Z,576.50
2018-08-09T16:05:06.628Z,579.73
2018-08-09T16:07:33.848Z,592.00
2018-08-09T16:10:01.115Z,570.87
2018-08-09T16:12:28.403Z,567.83
2018-08-09T16:14:55.600Z,572.20
2018-08-09T16:17:22.813Z,591.10
2018-08-09T16:19:50.077Z,595.53
2018-08-09T16:22:17.303Z,580.50
2018-08-09T16:24:44.515Z,582.73
2018-08-09T16:27:11.736Z,599.67
2018-08-09T16:29:39.097Z,610.37
2018-08-09T16:32:06.361Z,607.10
2018-08-09T16:34:33.575Z,635.07
2018-08-09T16:37:00.800Z,641.73
2018-08-09T16:39:28.021Z,644.17
2018-08-09T16:41:55.248Z,610.20
2018-08-09T16:44:22.472Z,597.20
2018-08-09T16:46:49.692Z,646.37
2018-08-09T16:49:16.915Z,593.93
2018-08-09T16:51:44.160Z,622.20
2018-08-09T16:54:11.352Z,601.20
2018-08-09T16:56:38.626Z,593.83
2018-08-09T16:59:05.997Z,601.67
2018-08-09T17:01:33.252Z,612.57
2018-08-09T17:04:00.541Z,596.70
2018-08-09T17:06:27.772Z,594.37
2018-08-09T17:08:55.089Z,594.37
2018-08-09T17:11:22.471Z,593.07
2018-08-09T17:13:49.696Z,584.97
2018-08-09T17:16:16.924Z,578.27
2018-08-09T17:18:44.132Z,590.80
2018-08-09T17:21:11.384Z,581.87
2018-08-09T17:23:38.763Z,593.50
2018-08-09T17:26:06.064Z,581.67
2018-08-09T17:28:33.283Z,593.40
2018-08-09T17:31:00.491Z,571.97
2018-08-09T17:33:27.706Z,588.47
2018-08-09T17:35:54.917Z,577.43
2018-08-09T17:38:22.101Z,576.13
2018-08-09T17:40:49.317Z,581.37
2018-08-09T17:43:16.583Z,570.90
2018-08-09T17:45:43.833Z,571.13
2018-08-09T17:48:11.076Z,576.53
2018-08-09T17:50:38.520Z,583.07
2018-08-09T17:53:07.240Z,568.37
2018-08-09T17:55:34.557Z,566.03
2018-08-09T17:58:01.760Z,569.53
2018-08-09T18:00:30.615Z,558.40
2018-08-09T18:02:58.001Z,562.90
2018-08-09T18:05:25.308Z,561.27
2018-08-09T18:07:53.089Z,574.93
2018-08-09T18:10:22.660Z,560.13
2018-08-09T18:12:50.241Z,556.97
2018-08-09T18:15:17.897Z,559.33
2018-08-09T18:17:45.186Z,553.97
2018-08-09T18:20:21.143Z,552.20
2018-08-09T18:22:48.511Z,553.60
2018-08-09T18:25:16.012Z,549.27
2018-08-09T18:27:43.358Z,564.03
2018-08-09T18:30:14.576Z,548.70
2018-08-09T18:32:41.963Z,564.60
2018-08-09T18:35:10.846Z,550.50
2018-08-09T18:37:38.367Z,551.63
2018-08-09T18:40:07.859Z,554.27
2018-08-09T18:42:35.116Z,546.50
2018-08-09T18:45:02.441Z,552.50
2018-08-09T18:47:29.740Z,541.20
2018-08-09T18:49:57.136Z,546.80
2018-08-09T18:52:24.502Z,538.97
2018-08-09T18:54:51.724Z,544.97
2018-08-09T18:57:19.172Z,548.60
2018-08-09T18:59:46.436Z,550.07
2018-08-09T19:02:13.724Z,543.77
2018-08-09T19:04:41.209Z,547.93
2018-08-09T19:07:08.444Z,537.73
2018-08-09T19:09:35.776Z,539.83
2018-08-09T19:12:03.027Z,536.83
2018-08-09T19:14:31.936Z,537.23
2018-08-09T19:16:59.231Z,540.80
2018-08-09T19:19:26.480Z,544.20
2018-08-09T19:21:53.852Z,540.83
2018-08-09T19:24:21.111Z,531.07
2018-08-09T19:26:48.508Z,544.37
2018-08-09T19:29:15.739Z,530.97
2018-08-09T19:31:42.928Z,534.97
2018-08-09T19:34:10.358Z,543.37
2018-08-09T19:36:37.625Z,534.70
2018-08-09T19:39:08.952Z,543.50
2018-08-09T19:41:36.239Z,541.00
2018-08-09T19:44:03.536Z,539.53
2018-08-09T19:46:30.920Z,534.67
2018-08-09T19:48:58.149Z,537.77
2018-08-09T19:51:26.044Z,536.27
2018-08-09T19:53:53.368Z,535.37
2018-08-09T19:56:20.603Z,536.83
2018-08-09T19:58:47.809Z,540.07
2018-08-09T20:01:15.063Z,536.87
2018-08-09T20:03:42.385Z,538.57
2018-08-09T20:06:09.631Z,542.07
2018-08-09T20:08:37.269Z,546.97
2018-08-09T20:11:04.501Z,540.23
2018-08-09T20:13:32.132Z,535.80
2018-08-09T20:15:59.519Z,541.17
2018-08-09T20:18:26.756Z,547.60
2018-08-09T20:20:54.124Z,539.13
2018-08-09T20:23:21.436Z,535.93
2018-08-09T20:25:48.612Z,536.73
2018-08-09T20:28:15.805Z,541.87
2018-08-09T20:30:43.128Z,538.03
2018-08-09T20:33:10.326Z,549.20
2018-08-09T20:35:37.520Z,538.97
2018-08-09T20:38:04.780Z,538.90
2018-08-09T20:40:32.004Z,541.93
2018-08-09T20:43:00.596Z,539.93
2018-08-09T20:45:28.922Z,537.13
2018-08-09T20:47:56.167Z,547.33
2018-08-09T20:50:25.168Z,541.40
2018-08-09T20:52:52.388Z,536.93
2018-08-09T20:55:19.748Z,536.77
2018-08-09T20:57:47.664Z,542.23
2018-08-09T21:00:17.417Z,542.30
2018-08-09T21:02:45.775Z,541.53
2018-08-09T21:05:18.184Z,539.30
2018-08-09T21:07:45.408Z,541.73
2018-08-09T21:10:13.008Z,549.60
2018-08-09T21:12:40.302Z,545.60
2018-08-09T21:15:07.695Z,549.93
2018-08-09T21:17:34.921Z,538.63
2018-08-09T21:20:02.347Z,540.63
2018-08-09T21:22:29.649Z,543.43
2018-08-09T21:24:57.112Z,538.83
2018-08-09T21:27:24.403Z,546.10
2018-08-09T21:29:51.756Z,549.67
2018-08-09T21:32:18.969Z,542.63
2018-08-09T21:34:46.387Z,536.37
2018-08-09T21:37:13.731Z,552.03
2018-08-09T21:39:41.012Z,539.07
2018-08-09T21:42:08.463Z,537.13
2018-08-09T21:44:35.807Z,542.67
2018-08-09T21:47:03.038Z,537.80
2018-08-09T21:49:30.296Z,534.07
2018-08-09T21:51:57.511Z,539.10
2018-08-09T21:54:24.940Z,538.43
2018-08-09T21:56:52.251Z,541.93
2018-08-09T21:59:19.608Z,536.40
2018-08-09T22:01:46.856Z,545.67
2018-08-09T22:04:14.214Z,543.00
2018-08-09T22:06:47.455Z,537.30
2018-08-09T22:10:24.470Z,536.60
2018-08-09T22:12:57.501Z,538.33
2018-08-09T22:16:30.182Z,542.33
2018-08-09T22:19:03.086Z,538.47
2018-08-09T22:21:36.024Z,539.67
2018-08-09T22:24:03.284Z,533.43
2018-08-09T22:26:30.544Z,541.90
2018-08-09T22:28:57.778Z,541.97
2018-08-09T22:31:24.976Z,534.00
2018-08-09T22:33:52.266Z,534.33
2018-08-09T22:36:19.487Z,542.70
2018-08-09T22:38:46.658Z,540.73
2018-08-09T22:41:13.861Z,532.43
2018-08-09T22:43:41.051Z,535.57
2018-08-09T22:46:08.293Z,535.17
2018-08-09T22:48:35.476Z,534.70
2018-08-09T22:51:02.668Z,537.77
2018-08-09T22:53:29.876Z,533.70
2018-08-09T22:55:57.091Z,529.97
2018-08-09T22:58:24.293Z,530.97
2018-08-09T23:00:51.540Z,541.40
2018-08-09T23:03:18.748Z,541.43
2018-08-09T23:05:45.935Z,533.33
2018-08-09T23:08:14.209Z,540.07
2018-08-09T23:10:42.200Z,536.13
2018-08-09T23:13:10.273Z,532.47
2018-08-09T23:15:37.525Z,533.87
2018-08-09T23:18:05.041Z,535.77
2018-08-09T23:20:32.394Z,535.57
2018-08-09T23:22:59.629Z,535.80
2018-08-09T23:25:26.807Z,537.03
2018-08-09T23:27:54.021Z,539.90
2018-08-09T23:30:21.224Z,535.47
2018-08-09T23:32:48.428Z,539.37
2018-08-09T23:35:15.627Z,537.03
2018-08-09T23:37:42.878Z,535.30
2018-08-09T23:40:10.696Z,535.73
2018-08-09T23:42:38.274Z,535.80
2018-08-09T23:45:06.940Z,540.17
2018-08-09T23:47:34.624Z,536.40
2018-08-09T23:50:01.836Z,536.37
2018-08-09T23:52:29.028Z,534.17
2018-08-09T23:54:56.271Z,531.03
2018-08-09T23:57:23.478Z,530.97
2018-08-09T23:59:50.672Z,528.70
